Time;durP1;ratioP1;P1;durP2;ratioP2;P2;SDS_P1;SDS_P2;PMS_P1;PMS_P2;Temp;Humidity;BMP_temperature;BMP_pressure;BME280_temperature;BME280_humidity;BME280_pressure;Samples;Min_cycle;Max_cycle;Signal;HPM_P1;HPM_P2
2021/06/09 00:00:42;;;;;;;3.25;2.22;;;16.10;99.90;;;;;;5070964;28;20032;-82
2021/06/09 00:03:08;;;;;;;2.67;2.00;;;16.10;99.90;;;;;;5085709;28;20495;-82
2021/06/09 00:05:34;;;;;;;3.90;2.35;;;16.10;99.90;;;;;;5089219;28;20034;-82
2021/06/09 00:08:00;;;;;;;4.80;2.30;;;16.10;99.90;;;;;;5089726;28;20071;-82
2021/06/09 00:10:26;;;;;;;5.55;2.60;;;16.00;99.90;;;;;;5071053;28;20570;-82
2021/06/09 00:12:51;;;;;;;4.50;2.55;;;16.10;99.90;;;;;;5085688;28;20036;-82
2021/06/09 00:15:18;;;;;;;4.38;2.80;;;16.10;99.90;;;;;;5070831;28;20050;-82
2021/06/09 00:17:44;;;;;;;3.30;2.53;;;16.10;99.90;;;;;;5087521;28;20028;-82
2021/06/09 00:20:20;;;;;;;3.55;2.78;;;16.10;99.90;;;;;;5085671;28;20097;-82
2021/06/09 00:22:47;;;;;;;3.90;2.92;;;16.10;99.90;;;;;;5087514;28;20083;-81
2021/06/09 00:25:17;;;;;;;4.30;2.97;;;16.10;99.90;;;;;;5068109;28;20079;-82
2021/06/09 00:27:47;;;;;;;3.08;2.78;;;16.00;99.90;;;;;;5088167;28;20039;-82
2021/06/09 00:30:23;;;;;;;3.35;2.88;;;16.00;99.90;;;;;;5087523;28;20612;-82
2021/06/09 00:32:49;;;;;;;3.95;2.75;;;16.00;99.90;;;;;;5086101;28;20482;-82
2021/06/09 00:35:15;;;;;;;4.97;3.10;;;16.00;99.90;;;;;;5066661;28;20540;-82
2021/06/09 00:37:41;;;;;;;3.42;3.13;;;16.00;99.90;;;;;;5067195;28;20028;-82
2021/06/09 00:40:09;;;;;;;4.78;2.78;;;16.00;99.90;;;;;;5087085;28;20043;-82
2021/06/09 00:42:35;;;;;;;3.63;3.17;;;16.00;99.90;;;;;;5085958;28;20032;-82
2021/06/09 00:45:01;;;;;;;4.78;3.00;;;15.90;99.90;;;;;;5088375;28;20383;-82
2021/06/09 00:47:47;;;;;;;5.85;3.22;;;15.90;99.90;;;;;;5083886;28;20047;-82
2021/06/09 00:50:13;;;;;;;7.25;3.60;;;15.90;99.90;;;;;;5068094;28;20410;-82
2021/06/09 00:52:39;;;;;;;3.97;3.40;;;15.80;99.90;;;;;;5087362;28;20494;-82
2021/06/09 00:55:05;;;;;;;4.80;3.30;;;15.80;99.90;;;;;;5037075;28;20040;-82
2021/06/09 00:57:31;;;;;;;4.32;3.67;;;15.80;99.90;;;;;;5086286;28;20032;-82
2021/06/09 00:59:57;;;;;;;8.05;3.55;;;15.70;99.90;;;;;;5086603;28;20085;-82
2021/06/09 01:02:26;;;;;;;7.53;3.90;;;15.70;99.90;;;;;;5051880;28;20039;-82
2021/06/09 01:04:52;;;;;;;4.10;3.38;;;15.70;99.90;;;;;;5086633;28;20039;-82
2021/06/09 01:07:18;;;;;;;4.88;3.90;;;15.60;99.90;;;;;;5053971;28;20040;-82
2021/06/09 01:09:46;;;;;;;5.53;3.85;;;15.60;99.90;;;;;;5053923;28;20415;-82
2021/06/09 01:12:12;;;;;;;5.10;4.45;;;15.60;99.90;;;;;;5068692;28;20039;-82
2021/06/09 01:14:39;;;;;;;6.03;3.50;;;15.60;99.90;;;;;;5086611;28;20134;-82
2021/06/09 01:17:05;;;;;;;4.82;4.20;;;15.50;99.90;;;;;;5076969;28;20036;-82
2021/06/09 01:19:32;;;;;;;6.10;4.20;;;15.60;99.90;;;;;;5052751;28;20101;-82
2021/06/09 01:21:58;;;;;;;4.97;3.70;;;15.60;99.90;;;;;;5087107;28;20086;-82
2021/06/09 01:24:25;;;;;;;4.80;3.88;;;15.50;99.90;;;;;;5086726;28;20044;-82
2021/06/09 01:26:51;;;;;;;4.07;3.40;;;15.50;99.90;;;;;;5068864;28;20036;-82
2021/06/09 01:29:18;;;;;;;4.75;3.83;;;15.60;99.90;;;;;;5069627;28;20450;-82
2021/06/09 01:31:44;;;;;;;7.05;4.07;;;15.60;99.90;;;;;;5068605;28;20032;-82
2021/06/09 01:34:09;;;;;;;4.85;4.07;;;15.60;99.90;;;;;;5085242;28;20497;-82
2021/06/09 01:36:39;;;;;;;5.70;4.00;;;15.60;99.90;;;;;;5086770;28;20584;-82
2021/06/09 01:39:16;;;;;;;4.63;3.78;;;15.50;99.90;;;;;;5065988;28;20086;-82
2021/06/09 01:41:44;;;;;;;6.60;4.18;;;15.40;99.90;;;;;;5084975;28;20048;-82
2021/06/09 01:44:30;;;;;;;5.63;3.80;;;15.40;99.90;;;;;;5072674;28;20127;-82
2021/06/09 01:46:56;;;;;;;6.50;4.05;;;15.40;99.90;;;;;;5069504;28;20039;-82
2021/06/09 01:49:22;;;;;;;4.70;3.92;;;15.40;99.90;;;;;;5069376;28;20521;-82
2021/06/09 01:51:48;;;;;;;5.55;4.05;;;15.40;99.90;;;;;;5048828;28;20040;-82
2021/06/09 01:54:14;;;;;;;4.47;4.00;;;15.40;99.90;;;;;;5085798;28;20044;-82
2021/06/09 01:56:40;;;;;;;6.57;4.47;;;15.40;99.90;;;;;;5085259;28;20135;-81
2021/06/09 01:59:11;;;;;;;6.82;4.68;;;15.40;99.90;;;;;;5087269;28;20036;-82
2021/06/09 02:01:37;;;;;;;6.40;5.80;;;15.40;99.90;;;;;;5086874;28;20040;-82
2021/06/09 02:04:09;;;;;;;6.47;5.72;;;15.40;99.90;;;;;;5068855;28;20024;-82
2021/06/09 02:06:45;;;;;;;7.68;6.75;;;15.30;99.90;;;;;;5070959;28;20043;-82
2021/06/09 02:09:30;;;;;;;8.98;7.53;;;15.30;99.90;;;;;;5086167;28;20043;-81
2021/06/09 02:11:55;;;;;;;8.98;8.05;;;15.30;99.90;;;;;;5084837;28;20813;-82
2021/06/09 02:14:21;;;;;;;10.07;8.45;;;15.30;99.90;;;;;;5052702;28;20101;-82
2021/06/09 02:16:50;;;;;;;10.18;8.40;;;15.30;99.90;;;;;;5069393;28;20048;-82
2021/06/09 02:19:16;;;;;;;11.40;8.25;;;15.30;99.90;;;;;;5067528;28;20093;-82
2021/06/09 02:21:44;;;;;;;9.75;8.45;;;15.30;99.90;;;;;;5077281;28;20055;-82
2021/06/09 02:24:11;;;;;;;10.70;9.60;;;15.30;99.90;;;;;;5086203;28;20052;-82
2021/06/09 02:26:40;;;;;;;12.15;9.05;;;15.30;99.90;;;;;;5088222;28;20066;-82
2021/06/09 02:29:08;;;;;;;10.90;9.13;;;15.30;99.90;;;;;;5090893;28;20072;-82
2021/06/09 02:31:48;;;;;;;13.52;10.02;;;15.30;99.90;;;;;;5052129;28;20046;-82
2021/06/09 02:34:22;;;;;;;10.68;9.57;;;15.30;99.90;;;;;;5092153;28;20040;-82
2021/06/09 02:36:53;;;;;;;13.27;10.90;;;15.20;99.90;;;;;;5091187;28;20059;-82
2021/06/09 02:39:21;;;;;;;11.43;10.20;;;15.20;99.90;;;;;;5088859;28;20036;-82
2021/06/09 02:41:49;;;;;;;12.93;10.25;;;15.20;99.90;;;;;;5054913;28;20380;-82
2021/06/09 02:44:16;;;;;;;13.85;11.23;;;15.20;99.90;;;;;;5090969;28;20119;-82
2021/06/09 02:46:51;;;;;;;13.45;11.43;;;15.20;99.90;;;;;;5089748;28;20038;-82
2021/06/09 02:49:39;;;;;;;15.73;13.05;;;15.10;99.90;;;;;;5069442;28;20050;-82
2021/06/09 02:52:22;;;;;;;15.73;13.35;;;15.10;99.90;;;;;;5088769;28;20464;-81
2021/06/09 02:55:20;;;;;;;16.88;13.75;;;15.10;99.90;;;;;;5089411;28;20032;-82
2021/06/09 02:57:59;;;;;;;17.27;14.48;;;15.00;99.90;;;;;;5090044;28;20040;-82
2021/06/09 03:00:48;;;;;;;17.23;14.07;;;15.10;99.90;;;;;;5079076;28;20407;-82
2021/06/09 03:03:24;;;;;;;19.55;15.32;;;15.00;99.90;;;;;;5079849;28;20063;-82
2021/06/09 03:06:07;;;;;;;16.80;14.90;;;15.00;99.90;;;;;;5090096;28;20031;-81
2021/06/09 03:08:37;;;;;;;;;;;15.10;99.90;;;;;;5090269;28;20399;-82
2021/06/09 03:11:24;;;;;;;16.70;14.02;;;15.00;99.90;;;;;;5089168;28;19924;-82
2021/06/09 03:14:15;;;;;;;17.42;13.48;;;15.00;99.90;;;;;;5088532;28;20036;-82
2021/06/09 03:16:47;;;;;;;17.65;14.75;;;15.00;99.90;;;;;;5087271;28;20035;-82
2021/06/09 03:19:20;;;;;;;19.27;14.18;;;15.00;99.90;;;;;;5089368;28;20040;-82
2021/06/09 03:22:03;;;;;;;17.02;12.48;;;15.10;99.90;;;;;;5087257;28;20399;-82
2021/06/09 03:24:35;;;;;;;;;;;15.10;99.90;;;;;;5075945;28;20108;-82
2021/06/09 03:27:10;;;;;;;15.65;11.70;;;15.00;99.90;;;;;;5088135;28;19927;-82
2021/06/09 03:29:54;;;;;;;14.07;11.15;;;15.10;99.90;;;;;;5089604;28;20056;-82
2021/06/09 03:32:34;;;;;;;14.48;11.88;;;15.10;99.90;;;;;;5104963;27;20075;-82
2021/06/09 03:35:17;;;;;;;12.93;11.15;;;15.00;99.90;;;;;;5088595;28;20189;-82
2021/06/09 03:37:47;;;;;;;15.68;12.80;;;15.10;99.90;;;;;;5090417;28;20043;-82
2021/06/09 03:40:22;;;;;;;15.80;12.18;;;15.10;99.90;;;;;;5071071;28;20048;-82
2021/06/09 03:42:52;;;;;;;13.30;11.35;;;15.10;99.90;;;;;;5087537;28;20036;-82
2021/06/09 03:45:24;;;;;;;14.10;11.40;;;15.10;99.90;;;;;;5090269;28;20043;-81
2021/06/09 03:47:51;;;;;;;14.93;11.13;;;15.10;99.90;;;;;;5089267;28;20035;-82
2021/06/09 03:50:18;;;;;;;13.40;11.13;;;15.10;99.90;;;;;;5088297;28;20044;-82
2021/06/09 03:52:47;;;;;;;14.25;11.95;;;15.10;99.90;;;;;;5085914;28;20082;-82
2021/06/09 03:55:14;;;;;;;19.00;13.98;;;15.10;99.90;;;;;;5089446;28;20051;-82
2021/06/09 03:58:01;;;;;;;17.67;13.88;;;15.10;99.90;;;;;;5057765;28;20142;-82
2021/06/09 04:00:28;;;;;;;16.17;13.55;;;15.10;99.90;;;;;;5089295;28;20414;-81
2021/06/09 04:02:56;;;;;;;19.38;14.93;;;15.10;99.90;;;;;;5087767;28;20065;-82
2021/06/09 04:05:24;;;;;;;17.75;13.55;;;15.10;99.90;;;;;;5067364;28;20044;-83
2021/06/09 04:07:53;;;;;;;18.55;13.35;;;15.20;99.90;;;;;;5085520;28;20101;-81
2021/06/09 04:10:20;;;;;;;17.35;12.82;;;15.20;99.90;;;;;;5087831;28;20094;-82
2021/06/09 04:12:47;;;;;;;17.38;13.90;;;15.20;99.90;;;;;;5085231;28;20036;-82
2021/06/09 04:15:13;;;;;;;16.35;13.98;;;15.20;99.90;;;;;;5071324;28;20407;-82
2021/06/09 04:17:44;;;;;;;17.95;14.98;;;15.20;99.90;;;;;;5067298;28;20040;-82
2021/06/09 04:20:11;;;;;;;17.90;14.85;;;15.20;99.90;;;;;;5088300;28;20047;-82
2021/06/09 04:22:38;;;;;;;19.05;15.30;;;15.30;99.90;;;;;;5069162;28;20039;-81
2021/06/09 04:25:07;;;;;;;18.63;14.88;;;15.30;99.90;;;;;;5070470;28;20043;-82
2021/06/09 04:27:43;;;;;;;16.90;14.90;;;15.30;99.90;;;;;;5087452;28;20055;-82
2021/06/09 04:30:11;;;;;;;17.42;14.32;;;15.30;99.90;;;;;;5087817;28;20564;-82
2021/06/09 04:32:54;;;;;;;18.48;14.65;;;15.40;99.90;;;;;;5085739;28;20035;-82
2021/06/09 04:35:37;;;;;;;20.33;15.85;;;15.40;99.90;;;;;;5087664;28;20040;-82
2021/06/09 04:38:04;;;;;;;19.45;14.75;;;15.40;99.90;;;;;;5090373;28;20050;-82
2021/06/09 04:40:31;;;;;;;21.88;16.67;;;15.40;99.90;;;;;;5088107;28;20039;-82
2021/06/09 04:42:58;;;;;;;19.83;15.18;;;15.50;99.90;;;;;;5085786;28;20044;-82
2021/06/09 04:45:25;;;;;;;19.50;15.43;;;15.50;99.90;;;;;;5069969;28;20046;-86
2021/06/09 04:47:52;;;;;;;22.02;17.00;;;15.60;99.90;;;;;;5086479;28;20043;-82
2021/06/09 04:50:20;;;;;;;21.73;17.52;;;15.60;99.90;;;;;;5086159;28;20039;-82
2021/06/09 04:52:46;;;;;;;22.65;17.75;;;15.70;99.90;;;;;;5098598;28;20058;-82
2021/06/09 04:55:13;;;;;;;21.42;17.42;;;15.70;99.90;;;;;;5088610;28;20036;-82
2021/06/09 04:57:39;;;;;;;20.92;17.13;;;15.70;99.90;;;;;;5087810;28;20124;-82
2021/06/09 05:00:10;;;;;;;21.55;16.40;;;15.80;99.90;;;;;;5087829;28;20035;-82
2021/06/09 05:02:38;;;;;;;21.02;17.83;;;15.80;99.90;;;;;;5085655;28;20108;-82
2021/06/09 05:05:08;;;;;;;23.77;16.90;;;15.80;99.90;;;;;;5095175;28;20038;-81
2021/06/09 05:07:34;;;;;;;23.58;19.05;;;15.90;99.90;;;;;;5088483;28;20495;-81
2021/06/09 05:10:02;;;;;;;22.40;17.95;;;15.90;99.90;;;;;;5053353;28;20559;-80
2021/06/09 05:12:33;;;;;;;21.83;18.23;;;15.90;99.90;;;;;;5085322;28;20039;-81
2021/06/09 05:15:09;;;;;;;23.13;18.38;;;16.00;99.90;;;;;;5087146;28;20044;-81
2021/06/09 05:17:46;;;;;;;25.85;19.25;;;16.00;99.90;;;;;;5087483;28;20036;-80
2021/06/09 05:20:25;;;;;;;23.83;19.40;;;16.00;99.90;;;;;;5086753;28;20042;-81
2021/06/09 05:23:01;;;;;;;26.10;19.38;;;16.00;99.90;;;;;;5085894;28;20499;-81
2021/06/09 05:25:50;;;;;;;21.80;17.65;;;16.10;99.90;;;;;;5086501;28;20035;-81
2021/06/09 05:28:18;;;;;;;21.92;17.13;;;16.10;99.90;;;;;;5067152;28;20047;-80
2021/06/09 05:30:45;;;;;;;25.13;17.23;;;16.10;99.90;;;;;;5068609;28;20047;-81
2021/06/09 05:33:12;;;;;;;21.42;17.10;;;16.20;99.90;;;;;;5084225;28;20036;-81
2021/06/09 05:35:38;;;;;;;21.13;17.27;;;16.10;99.90;;;;;;5085515;28;20036;-81
2021/06/09 05:38:07;;;;;;;22.10;17.80;;;16.20;99.90;;;;;;5050449;28;20298;-81
2021/06/09 05:40:34;;;;;;;21.02;18.52;;;16.20;99.90;;;;;;5067301;28;20043;-81
2021/06/09 05:43:00;;;;;;;23.25;18.77;;;16.20;99.90;;;;;;5083661;28;20043;-81
2021/06/09 05:45:31;;;;;;;21.15;18.27;;;16.30;99.90;;;;;;5063332;28;20119;-81
2021/06/09 05:47:57;;;;;;;18.58;16.45;;;16.30;99.90;;;;;;5084532;28;20040;-81
2021/06/09 05:50:26;;;;;;;22.73;17.50;;;16.30;99.90;;;;;;5067776;28;20044;-81
2021/06/09 05:52:57;;;;;;;21.83;17.23;;;16.30;99.90;;;;;;5085892;28;20036;-80
2021/06/09 05:55:25;;;;;;;23.40;17.55;;;16.40;99.90;;;;;;5111697;28;20040;-81
2021/06/09 05:57:53;;;;;;;22.92;17.17;;;16.40;99.90;;;;;;5087820;28;20543;-81
2021/06/09 06:00:24;;;;;;;20.90;17.45;;;16.50;99.90;;;;;;5087303;28;20036;-81
2021/06/09 06:02:51;;;;;;;18.17;15.75;;;16.50;99.90;;;;;;5079071;28;20044;-81
2021/06/09 06:05:24;;;;;;;20.92;16.95;;;16.50;99.90;;;;;;5090357;28;20039;-81
2021/06/09 06:07:51;;;;;;;20.75;16.55;;;16.50;99.90;;;;;;5090313;28;20043;-81
2021/06/09 06:10:18;;;;;;;23.08;17.85;;;16.50;99.90;;;;;;5090586;28;20047;-81
2021/06/09 06:12:47;;;;;;;21.33;16.30;;;16.50;99.90;;;;;;5090777;28;20057;-81
2021/06/09 06:15:13;;;;;;;20.60;17.45;;;16.50;99.90;;;;;;5073229;28;20035;-81
2021/06/09 06:17:41;;;;;;;19.95;17.00;;;16.50;99.90;;;;;;5090416;28;20089;-81
2021/06/09 06:20:19;;;;;;;21.15;18.05;;;16.50;99.90;;;;;;5058320;28;20495;-81
2021/06/09 06:22:46;;;;;;;22.10;15.82;;;16.50;99.90;;;;;;5081190;28;20131;-81
2021/06/09 06:25:17;;;;;;;22.05;18.25;;;16.60;99.90;;;;;;5086313;28;20036;-81
2021/06/09 06:27:48;;;;;;;19.42;17.13;;;16.60;99.90;;;;;;5085628;28;20118;-81
2021/06/09 06:30:16;;;;;;;18.35;16.45;;;16.60;99.90;;;;;;5072669;28;20071;-81
2021/06/09 06:32:44;;;;;;;23.38;18.33;;;16.60;99.90;;;;;;5089115;28;20040;-81
2021/06/09 06:35:14;;;;;;;26.02;18.77;;;16.60;99.90;;;;;;5072455;28;20123;-81
2021/06/09 06:37:43;;;;;;;21.52;17.63;;;16.70;99.90;;;;;;5049742;28;20055;-81
2021/06/09 06:40:11;;;;;;;24.08;18.70;;;16.60;99.90;;;;;;5088719;28;20036;-81
2021/06/09 06:42:37;;;;;;;21.75;18.05;;;16.70;99.90;;;;;;5054533;28;20086;-81
2021/06/09 06:45:05;;;;;;;25.98;19.92;;;16.70;99.90;;;;;;5089539;28;20089;-81
2021/06/09 06:47:31;;;;;;;22.92;19.10;;;16.70;99.90;;;;;;5055764;28;20046;-81
2021/06/09 06:49:58;;;;;;;23.13;20.20;;;16.80;99.90;;;;;;5091048;28;20081;-82
2021/06/09 06:52:30;;;;;;;23.45;19.05;;;16.80;99.90;;;;;;5071342;28;20031;-81
2021/06/09 06:55:00;;;;;;;24.50;19.50;;;16.80;99.90;;;;;;5090132;28;20059;-81
2021/06/09 06:57:31;;;;;;;23.52;18.48;;;16.90;99.90;;;;;;5095091;28;20445;-80
2021/06/09 07:00:18;;;;;;;23.35;19.63;;;16.90;99.90;;;;;;5071311;28;20047;-81
2021/06/09 07:02:48;;;;;;;27.60;20.92;;;17.00;99.90;;;;;;5087904;28;20116;-81
2021/06/09 07:05:15;;;;;;;24.52;20.60;;;17.00;99.90;;;;;;5089392;28;20069;-80
2021/06/09 07:07:42;;;;;;;26.33;20.88;;;17.10;99.90;;;;;;5071425;28;20035;-81
2021/06/09 07:10:10;;;;;;;25.88;19.88;;;17.10;99.90;;;;;;5064593;28;20046;-81
2021/06/09 07:12:38;;;;;;;24.75;20.25;;;17.20;99.90;;;;;;5087180;28;20124;-82
2021/06/09 07:15:10;;;;;;;24.50;20.15;;;17.30;99.90;;;;;;5071720;28;20032;-81
2021/06/09 07:17:50;;;;;;;25.20;22.42;;;17.40;99.90;;;;;;5090148;28;20479;-81
2021/06/09 07:20:19;;;;;;;24.60;20.08;;;17.50;99.90;;;;;;5061623;28;20040;-81
2021/06/09 07:22:45;;;;;;;28.77;23.20;;;17.50;99.90;;;;;;5111843;27;20047;-81
2021/06/09 07:25:12;;;;;;;27.55;23.40;;;17.50;99.90;;;;;;5087952;28;20109;-81
2021/06/09 07:28:02;;;;;;;27.95;22.67;;;17.50;99.90;;;;;;5074195;28;20093;-81
2021/06/09 07:30:34;;;;;;;28.77;21.70;;;17.60;99.90;;;;;;5080603;28;20092;-81
2021/06/09 07:33:03;;;;;;;27.95;22.15;;;17.60;99.90;;;;;;5087266;28;20047;-81
2021/06/09 07:35:34;;;;;;;27.20;22.52;;;17.60;99.90;;;;;;5086382;28;20491;-81
2021/06/09 07:38:12;;;;;;;29.15;22.45;;;17.60;99.90;;;;;;5085526;28;20486;-81
2021/06/09 07:40:49;;;;;;;29.25;23.13;;;17.70;99.90;;;;;;5085734;28;20042;-81
2021/06/09 07:43:23;;;;;;;26.20;22.50;;;17.70;99.90;;;;;;5087126;28;20039;-82
2021/06/09 07:45:52;;;;;;;30.73;23.58;;;17.70;99.90;;;;;;5085868;28;20040;-80
2021/06/09 07:48:22;;;;;;;29.80;23.48;;;17.80;99.90;;;;;;5086076;28;20380;-81
2021/06/09 07:50:51;;;;;;;31.60;24.15;;;17.80;99.90;;;;;;5088169;28;20044;-81
2021/06/09 07:53:18;;;;;;;27.30;23.42;;;17.90;99.90;;;;;;5086569;28;20529;-81
2021/06/09 07:55:47;;;;;;;31.05;24.00;;;17.90;99.90;;;;;;5088067;28;20051;-81
2021/06/09 07:58:18;;;;;;;27.50;22.73;;;17.90;99.90;;;;;;5088475;28;20047;-81
2021/06/09 08:00:46;;;;;;;26.65;23.05;;;18.00;99.90;;;;;;5086342;28;20050;-80
2021/06/09 08:03:13;;;;;;;26.92;22.85;;;18.00;99.90;;;;;;5070388;28;20124;-81
2021/06/09 08:05:40;;;;;;;26.33;22.30;;;18.00;99.90;;;;;;5088910;28;20059;-81
2021/06/09 08:08:11;;;;;;;27.58;22.02;;;18.10;99.90;;;;;;5087542;28;20144;-82
2021/06/09 08:10:37;;;;;;;26.73;21.30;;;18.20;99.90;;;;;;5086972;28;20036;-81
2021/06/09 08:13:04;;;;;;;27.42;22.48;;;18.20;99.90;;;;;;5086952;28;20085;-81
2021/06/09 08:15:35;;;;;;;30.98;23.38;;;18.30;99.90;;;;;;5070364;28;20032;-81
2021/06/09 08:18:08;;;;;;;28.65;22.33;;;18.40;99.90;;;;;;5087738;28;20032;-80
2021/06/09 08:20:49;;;;;;;27.10;20.77;;;18.50;99.90;;;;;;5087791;28;20032;-81
2021/06/09 08:23:15;;;;;;;25.53;21.67;;;18.60;99.90;;;;;;5087291;28;20048;-81
2021/06/09 08:25:41;;;;;;;23.45;20.38;;;18.60;99.90;;;;;;5053166;28;20294;-81
2021/06/09 08:28:07;;;;;;;24.38;19.67;;;18.60;99.90;;;;;;5069251;28;20036;-81
2021/06/09 08:30:33;;;;;;;25.35;20.63;;;18.70;99.90;;;;;;5069766;28;20043;-81
2021/06/09 08:32:59;;;;;;;22.17;18.85;;;18.90;99.90;;;;;;5052580;28;20044;-81
2021/06/09 08:35:28;;;;;;;22.10;17.77;;;19.00;99.90;;;;;;5070235;28;20142;-81
2021/06/09 08:37:54;;;;;;;19.10;17.10;;;19.20;99.90;;;;;;5086467;28;20043;-80
2021/06/09 08:40:21;;;;;;;25.55;20.20;;;19.30;99.90;;;;;;5049951;28;20385;-81
2021/06/09 08:42:49;;;;;;;24.83;19.35;;;19.40;99.90;;;;;;5060647;28;20051;-81
2021/06/09 08:45:15;;;;;;;22.33;18.38;;;19.50;99.90;;;;;;5086753;28;20487;-81
2021/06/09 08:47:41;;;;;;;22.33;19.00;;;19.50;99.90;;;;;;5069988;28;20791;-81
2021/06/09 08:50:10;;;;;;;24.55;19.80;;;19.60;99.90;;;;;;5053033;28;20055;-82
2021/06/09 08:52:46;;;;;;;22.40;19.70;;;19.60;99.90;;;;;;5086677;28;20034;-81
2021/06/09 08:55:13;;;;;;;25.67;20.98;;;19.50;99.90;;;;;;5086548;28;20131;-82
2021/06/09 08:57:40;;;;;;;23.10;18.95;;;19.50;99.90;;;;;;5069667;28;20089;-82
2021/06/09 09:00:07;;;;;;;23.58;18.98;;;19.40;99.90;;;;;;5087519;28;20040;-82
2021/06/09 09:02:34;;;;;;;22.73;19.42;;;19.40;99.90;;;;;;5085492;28;20043;-81
2021/06/09 09:05:10;;;;;;;20.65;17.70;;;19.50;99.90;;;;;;5086558;28;20036;-81
2021/06/09 09:07:37;;;;;;;24.65;19.40;;;19.60;99.90;;;;;;5069864;28;20065;-81
2021/06/09 09:10:06;;;;;;;20.73;18.35;;;19.60;99.90;;;;;;5087259;28;20430;-81
2021/06/09 09:12:34;;;;;;;23.20;18.67;;;19.70;99.90;;;;;;5086109;28;20495;-82
2021/06/09 09:15:01;;;;;;;19.88;16.55;;;19.80;99.90;;;;;;5070373;28;20039;-82
2021/06/09 09:17:27;;;;;;;21.02;18.02;;;19.90;99.90;;;;;;5069805;28;20157;-81
2021/06/09 09:20:04;;;;;;;21.05;17.27;;;19.90;99.90;;;;;;5087761;28;20057;-81
2021/06/09 09:22:35;;;;;;;19.63;16.65;;;20.00;99.90;;;;;;5084458;28;20070;-82
2021/06/09 09:25:13;;;;;;;17.70;15.50;;;20.00;99.90;;;;;;5086539;28;20035;-81
2021/06/09 09:27:40;;;;;;;19.60;16.67;;;20.10;99.90;;;;;;5084151;28;20028;-82
2021/06/09 09:30:11;;;;;;;20.10;15.88;;;20.20;99.90;;;;;;5086049;28;20032;-81
2021/06/09 09:32:54;;;;;;;20.15;16.85;;;20.30;99.90;;;;;;5083809;28;20241;-81
2021/06/09 09:35:29;;;;;;;19.27;17.17;;;20.40;99.90;;;;;;5079256;28;20032;-81
2021/06/09 09:38:16;;;;;;;19.95;16.55;;;20.40;99.90;;;;;;5075208;28;20040;-82
2021/06/09 09:41:04;;;;;;;20.73;18.25;;;20.50;99.90;;;;;;5084878;28;20040;-82
2021/06/09 09:43:40;;;;;;;21.08;17.90;;;20.60;99.90;;;;;;5085563;28;20040;-82
2021/06/09 09:46:12;;;;;;;22.77;20.00;;;20.60;99.90;;;;;;5069313;28;20403;-82
2021/06/09 09:48:41;;;;;;;22.25;18.48;;;20.70;99.90;;;;;;5086129;28;20047;-81
2021/06/09 09:51:09;;;;;;;23.75;19.17;;;20.60;99.90;;;;;;5085247;28;20063;-81
2021/06/09 09:53:36;;;;;;;21.63;18.23;;;20.60;99.90;;;;;;5086045;28;20036;-81
2021/06/09 09:56:04;;;;;;;19.58;16.98;;;20.60;99.90;;;;;;5068906;28;20039;-82
2021/06/09 09:58:32;;;;;;;20.58;17.02;;;20.70;99.90;;;;;;5075997;28;20043;-82
2021/06/09 10:01:22;;;;;;;23.27;16.83;;;20.90;99.90;;;;;;5085584;28;20044;-82
2021/06/09 10:03:51;;;;;;;20.23;17.05;;;21.00;99.90;;;;;;5068473;28;20029;-82
2021/06/09 10:06:33;;;;;;;19.80;17.70;;;21.00;99.90;;;;;;5087487;28;20805;-82
2021/06/09 10:09:12;;;;;;;22.88;19.00;;;21.00;99.90;;;;;;5082959;28;20036;-82
2021/06/09 10:11:59;;;;;;;22.02;18.35;;;21.10;99.90;;;;;;5084074;28;20032;-82
2021/06/09 10:14:29;;;;;;;22.38;18.48;;;21.10;99.90;;;;;;5084877;28;20097;-81
2021/06/09 10:17:10;;;;;;;23.67;18.33;;;21.10;99.90;;;;;;5079761;28;20119;-82
2021/06/09 10:19:59;;;;;;;25.08;19.15;;;21.10;99.90;;;;;;5086993;28;20040;-85
2021/06/09 10:22:35;;;;;;;24.05;20.10;;;21.10;99.90;;;;;;5090497;28;20051;-84
2021/06/09 10:25:15;;;;;;;25.98;20.67;;;21.20;99.90;;;;;;5086365;28;20059;-84
2021/06/09 10:27:49;;;;;;;23.52;20.75;;;21.30;99.90;;;;;;5067054;28;20039;-83
2021/06/09 10:30:26;;;;;;;23.83;19.98;;;21.40;99.90;;;;;;5084843;28;20036;-83
2021/06/09 10:33:02;;;;;;;22.40;19.52;;;21.40;99.90;;;;;;5083855;28;20065;-83
2021/06/09 10:35:34;;;;;;;23.17;20.67;;;21.50;99.90;;;;;;5085506;28;20066;-83
2021/06/09 10:38:01;;;;;;;23.05;20.63;;;21.50;99.90;;;;;;5087297;28;20384;-83
2021/06/09 10:40:32;;;;;;;23.02;19.55;;;21.50;99.90;;;;;;5087115;28;20024;-83
2021/06/09 10:43:01;;;;;;;23.63;19.98;;;21.50;99.90;;;;;;5084424;28;20044;-83
2021/06/09 10:45:31;;;;;;;25.75;20.75;;;21.60;99.90;;;;;;5086493;28;20119;-82
2021/06/09 10:48:00;;;;;;;22.10;19.13;;;21.60;99.90;;;;;;5039066;28;20040;-82
2021/06/09 10:50:27;;;;;;;23.15;18.13;;;21.70;99.90;;;;;;5088582;28;20042;-83
2021/06/09 10:52:53;;;;;;;20.80;18.63;;;21.80;99.90;;;;;;5068275;28;20037;-83
2021/06/09 10:55:19;;;;;;;19.65;17.27;;;21.90;99.90;;;;;;5086438;28;20069;-83
2021/06/09 10:57:45;;;;;;;20.73;16.98;;;22.00;99.90;;;;;;5055641;28;20451;-84
2021/06/09 11:00:14;;;;;;;25.25;18.45;;;22.00;99.90;;;;;;5088457;28;20039;-84
2021/06/09 11:02:42;;;;;;;20.90;18.05;;;22.00;99.90;;;;;;5070860;28;20040;-84
2021/06/09 11:05:10;;;;;;;16.88;15.00;;;22.10;99.90;;;;;;5088436;28;20459;-84
2021/06/09 11:07:39;;;;;;;18.75;14.20;;;22.10;99.90;;;;;;5088470;28;20169;-84
2021/06/09 11:10:11;;;;;;;21.95;17.35;;;22.10;99.90;;;;;;5089000;28;20407;-84
2021/06/09 11:12:38;;;;;;;18.30;16.35;;;22.20;99.90;;;;;;5086397;28;20039;-85
2021/06/09 11:15:15;;;;;;;20.60;15.25;;;22.20;99.90;;;;;;5088357;28;20039;-84
2021/06/09 11:17:58;;;;;;;20.58;14.90;;;22.20;99.90;;;;;;5088931;28;20028;-84
2021/06/09 11:20:37;;;;;;;20.15;16.60;;;22.20;99.90;;;;;;5060572;28;20043;-85
2021/06/09 11:23:09;;;;;;;17.00;14.38;;;22.20;99.90;;;;;;5094711;28;20414;-85
2021/06/09 11:25:42;;;;;;;15.50;13.40;;;22.30;99.90;;;;;;5093387;28;20089;-87
2021/06/09 11:28:19;;;;;;;19.17;14.02;;;22.40;99.90;;;;;;5094684;28;20035;-85
2021/06/09 11:30:52;;;;;;;18.95;12.18;;;22.40;99.90;;;;;;5057860;28;20046;-86
2021/06/09 11:33:41;;;;;;;16.90;12.38;;;22.50;99.90;;;;;;5075116;28;20074;-86
2021/06/09 11:36:18;;;;;;;14.63;11.90;;;22.60;99.90;;;;;;5114981;27;20037;-85
2021/06/09 11:38:46;;;;;;;17.38;11.65;;;22.70;99.90;;;;;;5076850;28;20437;-87
2021/06/09 11:41:38;;;;;;;11.40;9.63;;;22.70;99.90;;;;;;5062752;28;20130;-85
2021/06/09 11:44:05;;;;;;;11.38;9.63;;;22.70;99.90;;;;;;5093377;28;20036;-86
2021/06/09 11:46:37;;;;;;;13.00;9.00;;;22.70;99.90;;;;;;5098142;28;20032;-85
2021/06/09 11:49:11;;;;;;;11.27;8.88;;;22.70;99.90;;;;;;5096326;28;20042;-85
2021/06/09 11:51:41;;;;;;;12.70;8.45;;;22.60;99.90;;;;;;5096163;28;20032;-85
2021/06/09 11:54:17;;;;;;;9.77;8.60;;;22.70;99.90;;;;;;5096614;28;20534;-85
2021/06/09 11:56:48;;;;;;;10.15;7.75;;;22.70;99.90;;;;;;5087846;28;20039;-86
2021/06/09 11:59:28;;;;;;;13.68;9.65;;;22.80;99.90;;;;;;5051835;28;20492;-86
2021/06/09 12:02:04;;;;;;;10.73;8.60;;;22.80;99.90;;;;;;5068490;28;20079;-86
2021/06/09 12:04:37;;;;;;;12.25;8.65;;;22.90;99.90;;;;;;5090062;28;20032;-84
2021/06/09 12:07:24;;;;;;;10.38;8.82;;;22.90;99.90;;;;;;5090510;28;20483;-85
2021/06/09 12:09:56;;;;;;;10.75;8.27;;;23.00;99.90;;;;;;5090899;28;20135;-86
2021/06/09 12:12:31;;;;;;;9.82;7.45;;;23.00;99.90;;;;;;5088421;28;20071;-86
2021/06/09 12:14:59;;;;;;;11.38;9.23;;;22.90;99.90;;;;;;5089473;28;20040;-86
2021/06/09 12:17:30;;;;;;;15.95;10.30;;;22.90;99.90;;;;;;5089842;28;20070;-86
2021/06/09 12:20:14;;;;;;;12.73;11.18;;;23.00;99.90;;;;;;5090514;28;20036;-86
2021/06/09 12:22:55;;;;;;;14.60;12.73;;;22.90;99.90;;;;;;5082050;28;20043;-86
2021/06/09 12:25:25;;;;;;;15.38;11.90;;;22.90;99.90;;;;;;5099809;28;20048;-86
2021/06/09 12:28:06;;;;;;;15.77;13.25;;;22.90;99.90;;;;;;5110523;27;20040;-86
2021/06/09 12:30:51;;;;;;;15.32;13.60;;;22.90;99.90;;;;;;5100868;28;20028;-87
2021/06/09 12:37:07;;;;;;;16.15;13.00;;;23.00;99.90;;;;;;5094145;28;20034;-87
2021/06/09 12:39:38;;;;;;;19.27;13.38;;;23.00;99.90;;;;;;5088552;28;20035;-85
2021/06/09 12:42:14;;;;;;;18.00;14.57;;;23.00;99.90;;;;;;5086597;28;20040;-86
2021/06/09 12:44:48;;;;;;;15.60;12.35;;;23.00;99.90;;;;;;5087306;28;20055;-84
2021/06/09 12:47:34;;;;;;;18.15;12.48;;;23.00;99.90;;;;;;5054257;28;20063;-84
2021/06/09 12:50:26;;;;;;;16.23;12.90;;;23.10;99.90;;;;;;5088988;28;20039;-84
2021/06/09 12:52:55;;;;;;;17.10;13.68;;;23.20;99.90;;;;;;5083848;28;20480;-85
2021/06/09 12:55:29;;;;;;;18.92;14.20;;;23.10;99.90;;;;;;5087070;28;20092;-84